Randles, Missouri
Current Conditions -  °F | °C
As of 12:53 AM on Sunday 23 Nov 2014 (Local Time) from KCGI Reporting Station
Clear Clear  
Wind Chill: 47°   Ceiling: Unl
Heat Index: 47°   Visibility: 10mi
Dew Point: 39°   Wind: 3mph
Humidity: 74%   Direction: 110°ESE
Pressure: 29.9"   Gusts: NA
Location:  37.1651°N, 89.623°W
Report Text: KCGI 230653Z AUTO 11003KT 10SM CLR 08/04 A2990 RMK AO2 SLP125 T00830039 TSNO
Loading
Personal Weather Stations






























Interactive Weather Map New forecast layout! Learn more

10-Day Weather Forecast

Advertisements
Track Severe Weather on mobile